createdAt,value
2016-03-02T00:00:17.198Z,14.48
2016-03-02T00:01:17.200Z,14.39
2016-03-02T00:02:17.218Z,14.29
2016-03-02T00:03:17.206Z,14.58
2016-03-02T00:04:17.223Z,14.39
2016-03-02T00:05:17.054Z,14
2016-03-02T00:06:17.229Z,14.39
2016-03-02T00:07:17.248Z,14.58
2016-03-02T00:08:17.234Z,14.58
2016-03-02T00:09:17.253Z,14.77
2016-03-02T00:10:17.239Z,14.19
2016-03-02T00:11:17.258Z,14.19
2016-03-02T00:12:17.260Z,14.58
2016-03-02T00:13:17.279Z,14.39
2016-03-02T00:14:17.266Z,14.48
2016-03-02T00:15:17.284Z,14.29
2016-03-02T00:16:17.287Z,14.39
2016-03-02T00:17:17.289Z,14.48
2016-03-02T00:18:17.292Z,14.67
2016-03-02T00:19:17.311Z,14.48
2016-03-02T00:20:17.314Z,14.29
2016-03-02T00:21:17.316Z,14.39
2016-03-02T00:22:17.318Z,14.39
2016-03-02T00:23:17.322Z,14.39
2016-03-02T00:24:17.340Z,14.67
2016-03-02T00:25:17.343Z,14.67
2016-03-02T00:26:17.346Z,14.87
2016-03-02T00:27:17.348Z,15.25
2016-03-02T00:28:17.366Z,15.25
2016-03-02T00:29:17.353Z,15.53
2016-03-02T00:30:17.357Z,14.95
2016-03-02T00:31:17.374Z,15.15
2016-03-02T00:32:17.377Z,15.44
2016-03-02T00:33:17.379Z,15.83
2016-03-02T00:34:17.382Z,15.53
2016-03-02T00:35:17.401Z,15.44
2016-03-02T00:36:17.404Z,15.63
2016-03-02T00:37:17.407Z,15.63
2016-03-02T00:38:17.409Z,15.73
2016-03-02T00:39:17.427Z,15.73
2016-03-02T00:40:17.431Z,15.63
2016-03-02T00:41:17.433Z,15.83
2016-03-02T00:42:17.436Z,15.92
2016-03-02T00:43:17.453Z,15.73
2016-03-02T00:44:17.472Z,15.73
2016-03-02T00:45:17.474Z,15.53
2016-03-02T00:46:17.461Z,15.92
2016-03-02T00:47:17.464Z,15.73
2016-03-02T00:48:17.467Z,15.83
2016-03-02T00:49:17.469Z,15.73
2016-03-02T00:50:17.488Z,15.63
2016-03-02T00:51:17.491Z,15.63
2016-03-02T00:52:17.493Z,15.83
2016-03-02T00:53:17.496Z,15.73
2016-03-02T00:54:17.513Z,16.11
2016-03-02T00:55:17.502Z,16.02
2016-03-02T00:56:17.519Z,15.83
2016-03-02T00:57:17.522Z,15.83
2016-03-02T00:58:17.525Z,15.83
2016-03-02T00:59:17.527Z,15.73
2016-03-02T01:00:17.546Z,15.83
2016-03-02T01:01:17.549Z,15.83
2016-03-02T01:02:17.568Z,16.31
2016-03-02T01:03:17.554Z,15.53
2016-03-02T01:04:17.572Z,15.92
2016-03-02T01:05:17.576Z,15.73
2016-03-02T01:06:17.578Z,16.31
2016-03-02T01:07:17.581Z,15.73
2016-03-02T01:08:17.583Z,16.11
2016-03-02T01:09:17.586Z,15.83
2016-03-02T01:10:17.620Z,16.21
2016-03-02T01:11:17.606Z,16.11
2016-03-02T01:12:17.610Z,16.31
2016-03-02T01:13:17.612Z,16.31
2016-03-02T01:14:17.614Z,15.92
2016-03-02T01:15:17.680Z,15.92
2016-03-02T01:16:17.636Z,15.92
2016-03-02T01:17:17.639Z,16.21
2016-03-02T01:18:17.642Z,15.83
2016-03-02T01:19:17.660Z,15.83
2016-03-02T01:20:17.663Z,15.92
2016-03-02T01:21:17.665Z,15.92
2016-03-02T01:22:17.668Z,16.31
2016-03-02T01:23:17.671Z,15.83
2016-03-02T01:24:17.673Z,15.83
2016-03-02T01:25:17.691Z,15.53
2016-03-02T01:26:17.710Z,15.92
2016-03-02T01:27:17.712Z,15.53
2016-03-02T01:28:17.715Z,15.83
2016-03-02T01:29:17.702Z,15.73
2016-03-02T01:30:17.705Z,15.83
2016-03-02T01:31:17.723Z,15.83
2016-03-02T01:32:17.726Z,15.92
2016-03-02T01:33:17.729Z,15.73
2016-03-02T01:34:17.746Z,16.31
2016-03-02T01:35:17.749Z,16.02
2016-03-02T01:36:17.752Z,16.3
2016-03-02T01:37:17.755Z,15.83
2016-03-02T01:38:17.757Z,16.02
2016-03-02T01:39:17.760Z,15.83
2016-03-02T01:40:17.779Z,15.73
2016-03-02T01:41:17.781Z,15.63
2016-03-02T01:42:17.784Z,15.63
2016-03-02T01:43:17.787Z,15.92
2016-03-02T01:44:17.789Z,15.92
2016-03-02T01:45:17.855Z,15.63
2016-03-02T01:46:17.794Z,15.92
2016-03-02T01:47:17.814Z,15.73
2016-03-02T01:48:17.816Z,15.45
2016-03-02T01:49:17.819Z,15.53
2016-03-02T01:50:17.837Z,15.63
2016-03-02T01:51:17.839Z,15.45
2016-03-02T01:52:17.873Z,15.63
2016-03-02T01:53:17.845Z,15.73
2016-03-02T01:54:17.847Z,15.73
2016-03-02T01:55:17.850Z,15.73
2016-03-02T01:56:17.868Z,15.53
2016-03-02T01:57:17.871Z,15.53
2016-03-02T01:58:17.874Z,15.44
2016-03-02T01:59:17.892Z,15.63
2016-03-02T02:00:17.880Z,15.63
2016-03-02T02:01:17.898Z,15.45
2016-03-02T02:02:17.900Z,15.35
2016-03-02T02:03:17.903Z,15.45
2016-03-02T02:04:17.906Z,15.25
2016-03-02T02:05:17.752Z,15.45
2016-03-02T02:06:17.920Z,15.45
2016-03-02T02:07:17.923Z,15.44
2016-03-02T02:08:17.942Z,15.63
2016-03-02T02:09:17.944Z,15.53
2016-03-02T02:10:17.947Z,15.35
2016-03-02T02:11:17.950Z,15.45
2016-03-02T02:12:17.968Z,15.53
2016-03-02T02:13:17.955Z,15.44
2016-03-02T02:14:17.974Z,15.35
2016-03-02T02:15:17.977Z,15.45
2016-03-02T02:16:17.979Z,15.15
2016-03-02T02:17:17.982Z,15.45
2016-03-02T02:18:17.985Z,15.73
2016-03-02T02:19:18.002Z,15.35
2016-03-02T02:20:18.005Z,15.44
2016-03-02T02:21:18.024Z,15.16
2016-03-02T02:22:18.011Z,15.44
2016-03-02T02:23:18.029Z,15.63
2016-03-02T02:24:18.032Z,15.34
2016-03-02T02:25:18.050Z,15.34
2016-03-02T02:26:18.037Z,15.44
2016-03-02T02:27:18.055Z,15.25
2016-03-02T02:28:18.058Z,15.44
2016-03-02T02:29:18.060Z,15.44
2016-03-02T02:30:18.063Z,15.63
2016-03-02T02:31:18.081Z,15.53
2016-03-02T02:32:18.069Z,15.44
2016-03-02T02:33:18.087Z,15.73
2016-03-02T02:34:18.090Z,15.63
2016-03-02T02:35:18.124Z,15.53
2016-03-02T02:36:18.095Z,15.83
2016-03-02T02:37:18.097Z,15.15
2016-03-02T02:38:18.117Z,15.34
2016-03-02T02:39:18.119Z,15.63
2016-03-02T02:40:18.122Z,15.34
2016-03-02T02:41:18.124Z,15.63
2016-03-02T02:42:18.142Z,15.44
2016-03-02T02:43:18.130Z,15.44
2016-03-02T02:44:18.147Z,15.44
2016-03-02T02:45:18.151Z,15.73
2016-03-02T02:46:18.169Z,15.53
2016-03-02T02:47:18.155Z,15.53
2016-03-02T02:48:18.158Z,15.73
2016-03-02T02:49:18.161Z,15.92
2016-03-02T02:50:18.211Z,15.83
2016-03-02T02:51:18.182Z,15.53
2016-03-02T02:52:18.185Z,15.15
2016-03-02T02:53:18.204Z,16.02
2016-03-02T02:54:18.206Z,15.44
2016-03-02T02:55:18.210Z,15.92
2016-03-02T02:56:18.227Z,15.63
2016-03-02T02:57:18.230Z,15.63
2016-03-02T02:58:18.232Z,15.63
2016-03-02T02:59:18.235Z,15.44
2016-03-02T03:00:18.238Z,15.73
2016-03-02T03:01:18.256Z,15.63
2016-03-02T03:02:18.259Z,15.53
2016-03-02T03:03:18.262Z,15.73
2016-03-02T03:04:18.264Z,15.83
2016-03-02T03:05:18.298Z,15.73
2016-03-02T03:06:18.270Z,15.73
2016-03-02T03:07:18.273Z,15.73
2016-03-02T03:08:18.290Z,15.63
2016-03-02T03:09:18.278Z,15.73
2016-03-02T03:10:18.312Z,15.53
2016-03-02T03:11:18.298Z,15.73
2016-03-02T03:12:18.300Z,15.83
2016-03-02T03:13:18.304Z,15.83
2016-03-02T03:14:18.322Z,15.63
2016-03-02T03:15:38.559Z,15.44
2016-03-02T03:16:18.328Z,15.83
2016-03-02T03:17:18.330Z,15.44
2016-03-02T03:18:18.364Z,15.63
2016-03-02T03:19:18.335Z,15.73
2016-03-02T03:20:18.370Z,15.92
2016-03-02T03:21:18.357Z,15.73
2016-03-02T03:22:18.234Z,15.92
2016-03-02T03:23:18.393Z,15.92
2016-03-02T03:24:18.365Z,15.73
2016-03-02T03:25:18.383Z,16.02
2016-03-02T03:26:18.386Z,15.92
2016-03-02T03:27:18.389Z,15.63
2016-03-02T03:28:18.391Z,15.92
2016-03-02T03:29:18.409Z,15.44
2016-03-02T03:30:18.413Z,15.63
2016-03-02T03:31:18.415Z,15.63
2016-03-02T03:32:18.418Z,15.53
2016-03-02T03:33:18.436Z,16.31
2016-03-02T03:34:18.439Z,15.44
2016-03-02T03:35:18.457Z,15.53
2016-03-02T03:36:18.444Z,15.44
2016-03-02T03:37:18.479Z,15.92
2016-03-02T03:38:18.450Z,16.21
2016-03-02T03:39:18.467Z,16.02
2016-03-02T03:40:18.470Z,15.91
2016-03-02T03:41:18.489Z,15.73
2016-03-02T03:42:18.475Z,15.92
2016-03-02T03:43:18.478Z,15.92
2016-03-02T03:44:18.481Z,15.92
2016-03-02T03:45:18.500Z,16.5
2016-03-02T03:46:18.502Z,15.92
2016-03-02T03:47:18.505Z,15.83
2016-03-02T03:48:18.508Z,15.92
2016-03-02T03:49:18.525Z,16.21
2016-03-02T03:50:18.528Z,15.92
2016-03-02T03:51:18.530Z,15.83
2016-03-02T03:52:18.533Z,16.21
2016-03-02T03:53:18.615Z,15.73
2016-03-02T03:54:18.538Z,15.81
2016-03-02T03:55:18.558Z,15.92
2016-03-02T03:56:18.560Z,16.41
2016-03-02T03:57:18.563Z,16.31
2016-03-02T03:58:18.566Z,15.81
2016-03-02T03:59:18.584Z,15.81
2016-03-02T04:00:18.587Z,16.31
2016-03-02T04:01:18.590Z,15.73
2016-03-02T04:02:18.593Z,16.02
2016-03-02T04:03:18.626Z,15.83
2016-03-02T04:04:18.628Z,16.21
2016-03-02T04:05:18.616Z,15.83
2016-03-02T04:06:18.618Z,16.41
2016-03-02T04:07:18.621Z,16.21
2016-03-02T04:08:18.623Z,16.6
2016-03-02T04:09:18.642Z,16.11
2016-03-02T04:10:18.645Z,16.31
2016-03-02T04:11:18.648Z,16.41
2016-03-02T04:12:18.651Z,16.5
2016-03-02T04:13:18.653Z,16.6
2016-03-02T04:14:18.655Z,16.2
2016-03-02T04:15:18.658Z,16.5
2016-03-02T04:16:18.661Z,16.79
2016-03-02T04:17:18.679Z,16.31
2016-03-02T04:18:18.683Z,16.21
2016-03-02T04:19:18.685Z,16.5
2016-03-02T04:20:18.702Z,16.69
2016-03-02T04:21:18.705Z,16.69
2016-03-02T04:22:18.708Z,16.5
2016-03-02T04:23:18.711Z,16.5
2016-03-02T04:24:18.729Z,16.6
2016-03-02T04:25:18.716Z,16.6
2016-03-02T04:26:18.735Z,16.59
2016-03-02T04:27:18.737Z,16.59
2016-03-02T04:28:18.741Z,16.69
2016-03-02T04:29:18.743Z,16.6
2016-03-02T04:30:18.746Z,16.69
2016-03-02T04:31:18.763Z,16.5
2016-03-02T04:32:18.766Z,16.69
2016-03-02T04:33:18.769Z,16.6
2016-03-02T04:34:18.771Z,16.6
2016-03-02T04:35:18.774Z,16.59
2016-03-02T04:36:18.793Z,16.6
2016-03-02T04:37:18.795Z,16.79
2016-03-02T04:38:18.798Z,16.49
2016-03-02T04:39:18.801Z,16.59
2016-03-02T04:40:18.804Z,16.79
2016-03-02T04:41:18.822Z,16.5
2016-03-02T04:42:18.840Z,16.49
2016-03-02T04:43:18.828Z,16.5
2016-03-02T04:44:18.846Z,16.69
2016-03-02T04:45:18.833Z,16.69
2016-03-02T04:46:18.851Z,16.5
2016-03-02T04:47:18.853Z,16.6
2016-03-02T04:48:18.856Z,16.6
2016-03-02T04:49:18.859Z,16.6
2016-03-02T04:50:18.861Z,16.49
2016-03-02T04:51:18.880Z,16.69
2016-03-02T04:52:18.882Z,16.6
2016-03-02T04:53:18.886Z,16.69
2016-03-02T04:54:18.888Z,16.49
2016-03-02T04:55:18.906Z,16.69
2016-03-02T04:56:18.894Z,16.6
2016-03-02T04:57:18.912Z,16.5
2016-03-02T04:58:18.915Z,16.5
2016-03-02T04:59:18.918Z,16.69
2016-03-02T05:00:18.920Z,16.21
2016-03-02T05:01:18.938Z,16.59
2016-03-02T05:02:18.940Z,16.69
2016-03-02T05:03:18.944Z,16.5
2016-03-02T05:04:18.962Z,16.69
2016-03-02T05:05:18.965Z,16.59
2016-03-02T05:06:18.951Z,16.59
2016-03-02T05:07:18.985Z,16.59
2016-03-02T05:08:18.973Z,16.78
2016-03-02T05:09:18.990Z,16.6
2016-03-02T05:10:18.979Z,16.5
2016-03-02T05:11:18.996Z,16.5
2016-03-02T05:12:18.999Z,16.59
2016-03-02T05:13:19.002Z,16.49
2016-03-02T05:14:19.004Z,16.69
2016-03-02T05:15:19.023Z,16.39
2016-03-02T05:16:19.009Z,16.49
2016-03-02T05:17:19.028Z,16.69
2016-03-02T05:18:19.030Z,16.3
2016-03-02T05:19:19.033Z,16.59
2016-03-02T05:20:19.036Z,16.59
2016-03-02T05:21:19.055Z,16.59
2016-03-02T05:22:19.057Z,16.59
2016-03-02T05:23:19.075Z,16.69
2016-03-02T05:24:19.063Z,16.41
2016-03-02T05:25:19.066Z,16.39
2016-03-02T05:26:19.083Z,16.59
2016-03-02T05:27:19.086Z,16.69
2016-03-02T05:28:19.074Z,16.39
2016-03-02T05:29:19.091Z,16.31
2016-03-02T05:30:19.094Z,16.11
2016-03-02T05:31:19.097Z,16.59
2016-03-02T05:32:19.115Z,16.11
2016-03-02T05:33:19.118Z,16.2
2016-03-02T05:34:19.121Z,16.2
2016-03-02T05:35:19.124Z,16.3
2016-03-02T05:36:19.126Z,16.69
2016-03-02T05:37:19.128Z,16.39
2016-03-02T05:38:19.163Z,16.69
2016-03-02T05:39:19.150Z,16.49
2016-03-02T05:40:19.153Z,16.49
2016-03-02T05:41:19.156Z,16.2
2016-03-02T05:42:19.204Z,16.49
2016-03-02T05:43:19.176Z,16.3
2016-03-02T05:44:19.179Z,16.49
2016-03-02T05:45:19.181Z,16.49
2016-03-02T05:46:19.184Z,16.3
2016-03-02T05:47:19.202Z,16.31
2016-03-02T05:48:19.205Z,16.01
2016-03-02T05:49:19.208Z,16.01
2016-03-02T05:50:19.210Z,16.11
2016-03-02T05:51:19.214Z,16.3
2016-03-02T05:52:19.216Z,16.3
2016-03-02T05:53:19.219Z,16.5
2016-03-02T05:54:19.237Z,16.49
2016-03-02T05:55:19.239Z,16.01
2016-03-02T05:56:19.258Z,16.5
2016-03-02T05:57:19.260Z,16.2
2016-03-02T05:58:19.263Z,15.73
2016-03-02T05:59:19.266Z,15.91
2016-03-02T06:00:19.268Z,15.91
2016-03-02T06:01:19.272Z,15.63
2016-03-02T06:02:19.274Z,15.72
2016-03-02T06:03:19.292Z,15.92
2016-03-02T06:04:19.295Z,15.92
2016-03-02T06:05:19.298Z,15.83
2016-03-02T06:06:19.301Z,15.92
2016-03-02T06:07:19.303Z,15.92
2016-03-02T06:08:19.321Z,16.11
2016-03-02T06:09:19.340Z,15.83
2016-03-02T06:10:19.342Z,16.02
2016-03-02T06:11:19.346Z,15.81
2016-03-02T06:12:19.348Z,16.02
2016-03-02T06:13:19.351Z,15.72
2016-03-02T06:14:19.353Z,15.83
2016-03-02T06:15:19.356Z,15.81
2016-03-02T06:16:19.359Z,15.91
2016-03-02T06:17:19.377Z,15.83
2016-03-02T06:18:19.380Z,15.83
2016-03-02T06:19:19.383Z,16.02
2016-03-02T06:20:19.385Z,15.72
2016-03-02T06:21:19.388Z,15.92
2016-03-02T06:22:19.391Z,15.83
2016-03-02T06:23:19.408Z,15.92
2016-03-02T06:24:19.411Z,15.83
2016-03-02T06:25:19.414Z,16.31
2016-03-02T06:26:19.432Z,15.73
2016-03-02T06:27:19.419Z,15.73
2016-03-02T06:28:19.437Z,15.83
2016-03-02T06:29:19.441Z,15.92
2016-03-02T06:30:19.443Z,15.73
2016-03-02T06:31:19.446Z,15.81
2016-03-02T06:32:19.464Z,15.92
2016-03-02T06:33:19.466Z,16.2
2016-03-02T06:34:19.469Z,15.73
2016-03-02T06:35:19.472Z,15.83
2016-03-02T06:36:19.474Z,15.73
2016-03-02T06:37:19.477Z,15.83
2016-03-02T06:38:19.496Z,16.21
2016-03-02T06:39:19.499Z,15.83
2016-03-02T06:40:19.501Z,16.11
2016-03-02T06:41:19.504Z,16.21
2016-03-02T06:42:19.506Z,15.91
2016-03-02T06:43:19.510Z,15.92
2016-03-02T06:44:19.528Z,15.92
2016-03-02T06:45:19.592Z,15.83
2016-03-02T06:46:19.533Z,15.92
2016-03-02T06:47:19.536Z,15.92
2016-03-02T06:48:19.554Z,15.83
2016-03-02T06:49:19.557Z,16.11
2016-03-02T06:50:19.559Z,16.5
2016-03-02T06:51:19.561Z,15.91
2016-03-02T06:52:19.564Z,16.01
2016-03-02T06:53:19.567Z,15.73
2016-03-02T06:54:19.570Z,15.83
2016-03-02T06:55:19.589Z,15.83
2016-03-02T06:56:19.591Z,15.92
2016-03-02T06:57:19.594Z,15.92
2016-03-02T06:58:19.596Z,16.11
2016-03-02T06:59:19.631Z,15.92
2016-03-02T07:00:19.618Z,16.69
2016-03-02T07:01:19.621Z,15.83
2016-03-02T07:02:19.623Z,15.81
2016-03-02T07:03:19.627Z,15.83
2016-03-02T07:04:19.629Z,16.21
2016-03-02T07:05:19.646Z,15.83
2016-03-02T07:06:19.649Z,15.92
2016-03-02T07:07:19.683Z,15.92
2016-03-02T07:08:19.655Z,15.92
2016-03-02T07:09:19.658Z,15.92
2016-03-02T07:10:19.676Z,15.92
2016-03-02T07:11:19.679Z,16.41
2016-03-02T07:12:19.696Z,15.83
2016-03-02T07:13:19.700Z,15.73
2016-03-02T07:14:19.702Z,15.92
2016-03-02T07:15:19.704Z,16.41
2016-03-02T07:16:19.708Z,15.92
2016-03-02T07:17:19.710Z,15.92
2016-03-02T07:18:19.713Z,15.92
2016-03-02T07:19:19.715Z,15.72
2016-03-02T07:20:19.734Z,15.83
2016-03-02T07:21:19.784Z,15.73
2016-03-02T07:22:19.739Z,15.92
2016-03-02T07:23:19.758Z,15.63
2016-03-02T07:24:19.745Z,16.3
2016-03-02T07:25:19.748Z,15.83
2016-03-02T07:26:19.766Z,15.92
2016-03-02T07:27:19.770Z,15.92
2016-03-02T07:28:19.772Z,16.31
2016-03-02T07:29:19.790Z,16.21
2016-03-02T07:30:19.793Z,15.44
2016-03-02T07:31:19.795Z,15.83
2016-03-02T07:32:19.798Z,15.73
2016-03-02T07:33:19.800Z,15.92
2016-03-02T07:34:19.804Z,15.73
2016-03-02T07:35:19.807Z,15.45
2016-03-02T07:36:19.809Z,15.64
2016-03-02T07:37:19.828Z,15.06
2016-03-02T07:38:19.830Z,14.87
2016-03-02T07:39:19.833Z,14.87
2016-03-02T07:40:19.835Z,14.39
2016-03-02T07:41:19.854Z,14.78
2016-03-02T07:42:19.857Z,14.97
2016-03-02T07:43:19.859Z,14.49
2016-03-02T07:44:19.863Z,14.4
2016-03-02T07:45:19.880Z,14.5
2016-03-02T07:46:19.868Z,14.2
2016-03-02T07:47:19.885Z,14.4
2016-03-02T07:48:19.888Z,14.3
2016-03-02T07:49:19.891Z,14.22
2016-03-02T07:50:19.894Z,14.12
2016-03-02T07:51:19.927Z,14.22
2016-03-02T07:52:19.914Z,14.22
2016-03-02T07:53:19.917Z,14.31
2016-03-02T07:54:19.920Z,13.92
2016-03-02T07:55:19.922Z,13.73
2016-03-02T07:56:19.925Z,14.22
2016-03-02T07:57:19.959Z,14.02
2016-03-02T07:58:19.946Z,13.82
2016-03-02T07:59:19.948Z,13.63
2016-03-02T08:00:19.967Z,14.12
2016-03-02T08:01:19.970Z,13.92
2016-03-02T08:02:19.972Z,13.34
2016-03-02T08:03:19.991Z,14.02
2016-03-02T08:04:20.072Z,13.92
2016-03-02T08:05:19.981Z,13.82
2016-03-02T08:06:19.984Z,14.02
2016-03-02T08:07:20.002Z,14.12
2016-03-02T08:08:20.005Z,14.12
2016-03-02T08:09:20.008Z,14.02
2016-03-02T08:10:20.025Z,13.73
2016-03-02T08:11:20.028Z,14.03
2016-03-02T08:12:20.031Z,13.73
2016-03-02T08:13:20.034Z,13.92
2016-03-02T08:14:20.052Z,14.12
2016-03-02T08:15:20.054Z,13.92
2016-03-02T08:16:20.057Z,14.02
2016-03-02T08:17:20.060Z,13.73
2016-03-02T08:18:20.079Z,13.92
2016-03-02T08:19:20.082Z,14.02
2016-03-02T08:20:20.085Z,13.73
2016-03-02T08:21:20.149Z,13.92
2016-03-02T08:22:20.105Z,13.82
2016-03-02T08:23:20.092Z,14.02
2016-03-02T08:24:20.110Z,14.02
2016-03-02T08:25:20.112Z,14.4
2016-03-02T08:26:20.115Z,14.02
2016-03-02T08:27:20.134Z,13.82
2016-03-02T08:28:20.137Z,14.02
2016-03-02T08:29:20.140Z,13.92
2016-03-02T08:30:20.142Z,14.02
2016-03-02T08:31:20.145Z,13.92
2016-03-02T08:32:20.163Z,14.02
2016-03-02T08:33:20.165Z,14.02
2016-03-02T08:34:20.168Z,14.02
2016-03-02T08:35:20.186Z,14.12
2016-03-02T08:36:20.189Z,14.02
2016-03-02T08:37:20.182Z,14.22
2016-03-02T08:38:20.171Z,14.02
2016-03-02T08:39:20.158Z,13.92
2016-03-02T08:40:20.161Z,14.12
2016-03-02T08:41:20.149Z,13.73
2016-03-02T08:42:20.125Z,13.92
2016-03-02T08:43:20.137Z,14.12
2016-03-02T08:44:20.150Z,14.02
2016-03-02T08:45:20.194Z,14.02
2016-03-02T08:46:20.144Z,14.02
2016-03-02T08:47:20.144Z,13.73
2016-03-02T08:48:20.161Z,13.73
2016-03-02T08:49:20.161Z,13.82
2016-03-02T08:50:20.163Z,13.92
2016-03-02T08:51:20.179Z,13.73
2016-03-02T08:52:20.180Z,13.92
2016-03-02T08:53:20.182Z,13.83
2016-03-02T08:54:20.184Z,13.83
2016-03-02T08:55:20.186Z,13.73
2016-03-02T08:56:20.203Z,13.92
2016-03-02T08:57:20.205Z,13.92
2016-03-02T08:58:20.049Z,14.03
2016-03-02T08:59:20.225Z,13.92
2016-03-02T09:00:20.227Z,13.63
2016-03-02T09:01:20.229Z,13.73
2016-03-02T09:02:20.232Z,14.12
2016-03-02T09:03:20.235Z,13.82
2016-03-02T09:04:20.253Z,13.92
2016-03-02T09:05:20.256Z,13.83
2016-03-02T09:06:20.259Z,13.92
2016-03-02T09:07:20.262Z,14.12
2016-03-02T09:08:20.265Z,14.22
2016-03-02T09:09:20.282Z,13.93
2016-03-02T09:10:20.301Z,13.73
2016-03-02T09:11:20.287Z,13.73
2016-03-02T09:12:20.290Z,13.92
2016-03-02T09:13:20.168Z,14.02
2016-03-02T09:14:20.326Z,13.83
2016-03-02T09:15:20.314Z,13.82
2016-03-02T09:16:20.317Z,14.02
2016-03-02T09:17:20.334Z,13.73
2016-03-02T09:18:20.338Z,14.03
2016-03-02T09:19:20.356Z,13.73
2016-03-02T09:20:20.359Z,14.31
2016-03-02T09:21:19.612Z,14.02
2016-03-02T09:22:20.364Z,14.02
2016-03-02T09:23:20.383Z,14.12
2016-03-02T09:24:20.385Z,14.03
2016-03-02T09:25:20.388Z,14.12
2016-03-02T09:26:20.391Z,14.03
2016-03-02T09:27:20.409Z,14.12
2016-03-02T09:28:20.411Z,14.03
2016-03-02T09:29:20.414Z,13.93
2016-03-02T09:30:20.417Z,13.93
2016-03-02T09:31:20.436Z,13.93
2016-03-02T09:32:20.422Z,14.12
2016-03-02T09:33:20.441Z,13.64
2016-03-02T09:34:20.443Z,13.83
2016-03-02T09:35:20.446Z,13.54
2016-03-02T09:36:20.449Z,13.25
2016-03-02T09:37:20.467Z,13.64
2016-03-02T09:38:20.471Z,13.75
2016-03-02T09:39:20.488Z,13.16
2016-03-02T09:40:20.491Z,13.26
2016-03-02T09:41:20.494Z,13.26
2016-03-02T09:42:20.496Z,13.16
2016-03-02T09:43:20.515Z,13.35
2016-03-02T09:44:20.501Z,13.16
2016-03-02T09:45:20.520Z,13.35
2016-03-02T09:46:20.522Z,13.55
2016-03-02T09:47:20.540Z,13.26
2016-03-02T09:48:20.543Z,13.45
2016-03-02T09:49:20.545Z,13.26
2016-03-02T09:50:20.548Z,13.35
2016-03-02T09:51:20.551Z,13.26
2016-03-02T09:52:20.554Z,13.26
2016-03-02T09:53:20.573Z,13.26
2016-03-02T09:54:20.575Z,13.26
2016-03-02T09:55:20.594Z,13.35
2016-03-02T09:56:20.596Z,13.16
2016-03-02T09:57:20.583Z,13.26
2016-03-02T09:58:20.601Z,13.26
2016-03-02T09:59:20.619Z,13.26
2016-03-02T10:00:20.607Z,13.45
2016-03-02T10:01:20.610Z,13.26
2016-03-02T10:02:20.627Z,13.35
2016-03-02T10:03:20.647Z,13.55
2016-03-02T10:04:20.649Z,13.26
2016-03-02T10:05:20.652Z,13.35
2016-03-02T10:06:20.654Z,13.35
2016-03-02T10:07:20.657Z,13.35
2016-03-02T10:08:20.676Z,13.26
2016-03-02T10:09:20.678Z,13.16
2016-03-02T10:10:20.682Z,13.16
2016-03-02T10:11:20.699Z,13.65
2016-03-02T10:12:20.687Z,13.16
2016-03-02T10:13:20.704Z,13.55
2016-03-02T10:14:20.707Z,13.84
2016-03-02T10:16:20.712Z,13.93
2016-03-02T10:17:20.746Z,13.55
2016-03-02T10:18:20.733Z,13.65
2016-03-02T10:19:20.751Z,13.93
2016-03-02T10:20:20.739Z,13.93
2016-03-02T10:21:20.757Z,13.16
2016-03-02T10:22:20.760Z,13.65
2016-03-02T10:23:20.794Z,13.35
2016-03-02T10:24:20.765Z,13.84
2016-03-02T10:25:20.800Z,13.16
2016-03-02T10:26:20.786Z,13.26
2016-03-02T10:27:20.820Z,13.26
2016-03-02T10:28:20.822Z,13.75
2016-03-02T10:29:20.825Z,13.64
2016-03-02T10:30:20.813Z,13.83
2016-03-02T10:31:20.816Z,13.54
2016-03-02T10:32:20.834Z,13.93
2016-03-02T10:33:20.852Z,14.03
2016-03-02T10:34:20.839Z,13.73
2016-03-02T10:35:20.857Z,14.12
2016-03-02T10:36:20.860Z,14.03
2016-03-02T10:37:20.862Z,13.93
2016-03-02T10:38:20.866Z,13.93
2016-03-02T10:39:20.884Z,13.73
2016-03-02T10:40:20.887Z,14.12
2016-03-02T10:41:20.890Z,14.32
2016-03-02T10:42:20.908Z,14.32
2016-03-02T10:43:20.910Z,13.93
2016-03-02T10:44:20.929Z,13.64
2016-03-02T10:45:20.915Z,13.93
2016-03-02T10:46:20.949Z,14.12
2016-03-02T10:47:20.937Z,14.22
2016-03-02T10:48:20.954Z,14.03
2016-03-02T10:49:20.942Z,14.31
2016-03-02T10:50:20.960Z,14.31
2016-03-02T10:51:20.962Z,14.22
2016-03-02T10:52:20.965Z,13.92
2016-03-02T10:53:20.968Z,14.02
2016-03-02T10:54:20.986Z,14.12
2016-03-02T10:55:20.989Z,14.31
2016-03-02T10:56:20.992Z,14.31
2016-03-02T10:57:21.011Z,14.31
2016-03-02T10:58:20.998Z,14.12
2016-03-02T10:59:21.016Z,14.31
2016-03-02T11:00:21.019Z,14.22
2016-03-02T11:01:21.052Z,14.4
2016-03-02T11:02:21.055Z,14.31
2016-03-02T11:03:21.042Z,14.4
2016-03-02T11:04:21.044Z,14.31
2016-03-02T11:05:21.064Z,14.5
2016-03-02T11:06:21.050Z,14.22
2016-03-02T11:07:21.068Z,14.02
2016-03-02T11:08:21.088Z,14.4
2016-03-02T11:09:21.090Z,14.6
2016-03-02T11:10:21.092Z,14.4
2016-03-02T11:11:21.095Z,14.7
2016-03-02T11:12:21.113Z,14.5
2016-03-02T11:13:21.101Z,14.4
2016-03-02T11:14:21.118Z,14.59
2016-03-02T11:15:21.121Z,14.5
2016-03-02T11:16:21.124Z,14.4
2016-03-02T11:17:21.126Z,14.5
2016-03-02T11:18:21.020Z,14.3
2016-03-02T11:19:21.148Z,14.59
2016-03-02T11:20:21.166Z,14.59
2016-03-02T11:21:21.153Z,14.69
2016-03-02T11:22:21.171Z,14.88
2016-03-02T11:23:21.189Z,14.78
2016-03-02T11:24:21.176Z,14.4
2016-03-02T11:25:21.195Z,14.4
2016-03-02T11:26:21.198Z,14.5
2016-03-02T11:27:21.217Z,14.4
2016-03-02T11:28:21.203Z,14.4
2016-03-02T11:29:21.222Z,14.3
2016-03-02T11:30:21.239Z,14.4
2016-03-02T11:31:21.227Z,14.59
2016-03-02T11:32:21.245Z,14.4
2016-03-02T11:33:21.248Z,14.5
2016-03-02T11:34:21.250Z,14.59
2016-03-02T11:35:21.253Z,14.4
2016-03-02T11:36:21.288Z,14.5
2016-03-02T11:37:21.274Z,14.02
2016-03-02T11:38:21.277Z,14.02
2016-03-02T11:39:21.280Z,14.31
2016-03-02T11:40:21.299Z,14.5
2016-03-02T11:41:21.301Z,14.02
2016-03-02T11:42:21.303Z,14.12
2016-03-02T11:43:21.306Z,14.12
2016-03-02T11:44:21.324Z,14.22
2016-03-02T11:45:21.327Z,14.12
2016-03-02T11:46:21.330Z,14.12
2016-03-02T11:47:21.332Z,14.4
2016-03-02T11:48:21.335Z,14.31
2016-03-02T11:49:21.353Z,14.31
2016-03-02T11:50:21.356Z,14.5
2016-03-02T11:51:21.359Z,14.02
2016-03-02T11:52:21.376Z,13.92
2016-03-02T11:53:21.380Z,14.02
2016-03-02T11:54:21.382Z,14.31
2016-03-02T11:55:21.385Z,13.82
2016-03-02T11:56:21.387Z,13.73
2016-03-02T11:57:21.406Z,14.02
2016-03-02T11:58:21.409Z,13.82
2016-03-02T11:59:21.411Z,14.12
2016-03-02T12:00:21.414Z,14.22
2016-03-02T12:01:21.433Z,14.02
2016-03-02T12:02:21.450Z,14.02
2016-03-02T12:03:21.439Z,14.02
2016-03-02T12:04:21.472Z,14.02
2016-03-02T12:05:21.454Z,13.82
2016-03-02T12:06:21.317Z,14.31
2016-03-02T12:07:21.460Z,14.12
2016-03-02T12:08:21.479Z,14.12
2016-03-02T12:09:21.482Z,14.22
2016-03-02T12:10:21.484Z,14.31
2016-03-02T12:11:21.487Z,14.02
2016-03-02T12:12:21.506Z,14.12
2016-03-02T12:13:21.523Z,14.5
2016-03-02T12:14:21.526Z,14.31
2016-03-02T12:15:21.528Z,14.12
2016-03-02T12:16:21.532Z,14.12
2016-03-02T12:17:21.534Z,14.22
2016-03-02T12:18:21.537Z,14.22
2016-03-02T12:19:21.555Z,14.31
2016-03-02T12:20:21.558Z,14.12
2016-03-02T12:21:21.592Z,13.92
2016-03-02T12:22:21.580Z,14.4
2016-03-02T12:23:21.582Z,14.02
2016-03-02T12:24:21.585Z,14.12
2016-03-02T12:25:21.603Z,14.22
2016-03-02T12:26:21.605Z,14.12
2016-03-02T12:27:21.608Z,14.31
2016-03-02T12:28:21.626Z,14.4
2016-03-02T12:29:21.613Z,14.31
2016-03-02T12:30:21.616Z,14.12
2016-03-02T12:31:21.634Z,14.12
2016-03-02T12:32:21.637Z,13.73
2016-03-02T12:33:21.640Z,14.03
2016-03-02T12:34:21.658Z,14.22
2016-03-02T12:35:21.660Z,14.31
2016-03-02T12:36:21.664Z,14.22
2016-03-02T12:37:21.665Z,14.31
2016-03-02T12:38:21.685Z,14.12
2016-03-02T12:39:21.688Z,14.22
2016-03-02T12:40:21.690Z,14.22
2016-03-02T12:41:21.708Z,14.4
2016-03-02T12:42:21.711Z,14.22
2016-03-02T12:43:21.729Z,14.4
2016-03-02T12:44:21.732Z,14.4
2016-03-02T12:45:21.734Z,14.12
2016-03-02T12:46:21.753Z,14.31
2016-03-02T12:47:21.740Z,14.22
2016-03-02T12:48:21.743Z,14.4
2016-03-02T12:49:21.745Z,14.5
2016-03-02T12:50:21.764Z,14.22
2016-03-02T12:51:21.783Z,14.4
2016-03-02T12:52:21.801Z,14.12
2016-03-02T12:53:21.803Z,14.31
2016-03-02T12:54:21.805Z,14.22
2016-03-02T12:55:21.793Z,14.31
2016-03-02T12:56:21.812Z,14.22